• Join FlightAware (Why Join?)
  • Login
  • US Flag 
03:14AM EST


 

Airport Tracker/Info


-or-


 

Live Flight TrackerFlight Track Log ✈ SWA3206 ✈ 29-Apr-2013 ✈ KPHX - KBWI

Flight Track Log - Related Links

Times and Time Zones

All times are in EDT time to prevent confusion due to time zone crossing. See the SWA3206 flight status page for this flight to view local times or setup timezone preferences in your user account.

Time Position Orientation Groundspeed Altitude Reporting Facility
EDT Latitude Longitude Course Direction KTS MPH feet Rate Location/Type
08:40PM 33.4319 -112.0461 263° West 155 178 2,600  Level Albuquerque Center
08:41PM 33.4317 -112.1136 270° West 201 231 5,200 2,880 Climbing Albuquerque Center
08:42PM 33.4497 -112.1806 288° West 234 269 8,600 3,360 Climbing Albuquerque Center
08:43PM 33.5156 -112.1642 12° North 244 281 12,200 2,400 Climbing Albuquerque Center
08:44PM 33.5506 -112.0800 63° Northeast 328 377 13,600 2,940 Climbing Albuquerque Center
08:45PM 33.5722 -111.9406 79° East 357 411 18,300 3,600 Climbing Albuquerque Center
08:46PM 33.5944 -111.8194 78° East 373 429 21,000 2,580 Climbing Albuquerque Center
08:47PM 33.6169 -111.6914 78° East 390 449 23,700 2,340 Climbing Albuquerque Center
08:48PM 33.6386 -111.5597 79° East 404 465 25,900 2,040 Climbing Albuquerque Center
08:49PM 33.6628 -111.4206 78° East 426 490 28,000 1,920 Climbing Albuquerque Center
08:50PM 33.6878 -111.2783 78° East 438 504 29,900 2,160 Climbing Albuquerque Center
08:51PM 33.7439 -111.1153 67° East 444 511 32,500 2,220 Climbing Albuquerque Center
08:52PM 33.7903 -110.9800 68° East 440 506 34,500 1,800 Climbing Albuquerque Center
08:53PM 33.8386 -110.8461 66° East 439 505 36,200 1,440 Climbing Albuquerque Center
08:54PM 33.8847 -110.7131 67° East 436 502 37,500 1,080 Climbing Albuquerque Center
08:55PM 33.9317 -110.5778 67° East 438 504 38,500 720 Climbing Albuquerque Center
08:56PM 33.9800 -110.4406 67° East 443 510 39,000 240 Climbing Albuquerque Center
08:57PM 34.0311 -110.2978 67° East 449 517 39,000  Level Albuquerque Center
08:58PM 34.0783 -110.1597 68° East 449 517 39,000  Level Albuquerque Center
08:59PM 34.1361 -109.9939 67° East 445 512 39,000  Level Albuquerque Center
09:00PM 34.1803 -109.8622 68° East 443 510 39,000  Level Albuquerque Center
09:01PM 34.2244 -109.7306 68° East 443 510 39,000  Level Albuquerque Center
09:02PM 34.2778 -109.5764 67° East 444 511 39,000  Level Albuquerque Center
09:03PM 34.3239 -109.4442 67° East 446 513 39,000  Level Albuquerque Center
09:04PM 34.3792 -109.2903 66° East 447 514 39,000  Level Albuquerque Center
09:05PM 34.4261 -109.1589 67° East 446 513 39,000  Level Albuquerque Center
09:06PM 34.4728 -109.0278 67° East 445 512 39,000  Level Albuquerque Center
09:07PM 34.5264 -108.8758 67° East 442 509 39,000  Level Albuquerque Center
09:08PM 34.5719 -108.7458 67° East 441 507 39,000  Level Albuquerque Center
09:09PM 34.6250 -108.5950 67° East 439 505 39,000  Level Albuquerque Center
09:10PM 34.6703 -108.4633 67° East 439 505 39,000  Level Albuquerque Center
09:11PM 34.7172 -108.3272 67° East 438 504 39,000  Level Albuquerque Center
09:12PM 34.7642 -108.1922 67° East 436 502 39,000  Level Albuquerque Center
09:14PM 34.8108 -108.0581 67° East 433 498 39,000  Level Albuquerque Center
09:15PM 34.8631 -107.9056 67° East 430 495 39,000  Level Albuquerque Center
09:16PM 34.9011 -107.7897 68° East 429 494 39,000 120 Level Albuquerque Center
09:17PM 34.9475 -107.6544 67° East 430 495 39,300 420 Climbing Albuquerque Center
09:18PM 35.0042 -107.4883 67° East 438 504 39,900 660 Climbing Albuquerque Center
09:19PM 35.0511 -107.3444 68° East 451 519 40,700 480 Climbing Albuquerque Center
09:20PM 35.0989 -107.2019 68° East 452 520 41,000 120 Climbing Albuquerque Center
09:21PM 35.1461 -107.0606 68° East 456 525 41,000  Level Albuquerque Center
09:22PM 35.1975 -106.9022 68° East 451 519 41,000  Level Albuquerque Center
09:23PM 35.2439 -106.7667 67° East 451 519 41,000  Level Albuquerque Center
09:24PM 35.2881 -106.6314 68° East 450 518 41,000  Level Albuquerque Center
09:25PM 35.3369 -106.4800 68° East 449 517 41,000  Level Albuquerque Center
09:26PM 35.3822 -106.3408 68° East 443 510 41,000  Level Albuquerque Center
09:27PM 35.4283 -106.2022 68° East 440 506 41,000  Level Albuquerque Center
09:28PM 35.4725 -106.0611 69° East 442 509 41,000  Level Albuquerque Center
09:29PM 35.5164 -105.9211 69° East 440 506 41,000  Level Albuquerque Center
09:30PM 35.5647 -105.7600 70° East 441 507 41,000  Level Albuquerque Center
09:31PM 35.6067 -105.6161 70° East 443 510 41,000  Level Albuquerque Center
09:32PM 35.6494 -105.4711 70° East 445 512 41,000  Level Albuquerque Center
09:33PM 35.6936 -105.3261 69° East 448 516 41,000  Level Albuquerque Center
09:34PM 35.7344 -105.1811 71° East 445 512 41,000  Level Albuquerque Center
09:35PM 35.7758 -105.0369 70° East 441 507 41,000  Level Albuquerque Center
09:36PM 35.8183 -104.8928 70° East 442 509 41,000  Level Albuquerque Center
09:37PM 35.8611 -104.7467 70° East 445 512 41,000  Level Albuquerque Center
09:38PM 35.9039 -104.6003 70° East 448 516 41,000  Level Albuquerque Center
09:39PM 35.9444 -104.4572 71° East 440 506 41,000  Level Albuquerque Center
09:40PM 35.9861 -104.3125 70° East 440 506 41,000  Level Albuquerque Center
09:41PM 36.0269 -104.1675 71° East 442 509 41,000  Level Albuquerque Center
09:42PM 36.0758 -103.9981 70° East 443 510 41,000  Level Albuquerque Center
09:43PM 36.1175 -103.8500 71° East 448 516 41,000  Level Albuquerque Center
09:44PM 36.1597 -103.7064 70° East 442 509 41,000  Level Albuquerque Center
09:45PM 36.2003 -103.5581 71° East 446 513 41,000  Level Albuquerque Center
09:46PM 36.2411 -103.4108 71° East 448 516 41,000  Level Albuquerque Center
09:47PM 36.2806 -103.2631 72° East 449 517 41,000  Level Albuquerque Center
09:48PM 36.3197 -103.1131 72° East 451 519 41,000  Level Albuquerque Center
09:49PM 36.3600 -102.9678 71° East 446 513 41,000  Level Albuquerque Center
09:50PM 36.4036 -102.8103 71° East 448 516 41,000  Level Albuquerque Center
09:51PM 36.4417 -102.6658 72° East 444 511 41,000  Level Albuquerque Center
09:52PM 36.4811 -102.5183 72° East 447 514 41,000  Level Albuquerque Center
09:53PM 36.5203 -102.3717 72° East 447 514 41,000  Level Albuquerque Center
09:54PM 36.5594 -102.2267 71° East 443 510 41,000  Level Albuquerque Center
09:55PM 36.5997 -102.0725 72° East 445 512 41,000  Level Albuquerque Center
09:56PM 36.6356 -101.9328 72° East 444 511 41,000  Level Albuquerque Center
09:58PM 36.7039 -101.6722 72° East 450 518 41,000  Level Kansas City Center
09:59PM 36.7153 -101.6253 73° East 451 519 41,000  Level Albuquerque Center
10:00PM 36.7583 -101.4592 72° East 451 519 41,000  Level Albuquerque Center
10:01PM 36.7942 -101.3169 72° East 451 519 41,000  Level Albuquerque Center
10:01PM 36.8181 -101.2225 72° East 450 518 41,000  Level Kansas City Center
10:02PM 36.8539 -101.0822 72° East 447 514 41,000  Level Kansas City Center
10:03PM 36.8958 -100.9175 72° East 446 513 41,000  Level Kansas City Center
10:04PM 36.9300 -100.7781 73° East 443 510 41,000  Level Kansas City Center
10:05PM 36.9656 -100.6383 72° East 442 509 41,000  Level Kansas City Center
10:06PM 37.0064 -100.4750 73° East 443 510 41,000  Level Kansas City Center
10:07PM 37.0403 -100.3342 73° East 443 510 41,000  Level Kansas City Center
10:08PM 37.0803 -100.1681 73° East 447 514 41,000  Level Kansas City Center
10:09PM 37.1147 -100.0247 73° East 450 518 41,000  Level Kansas City Center
10:10PM 37.1553 -99.8594 73° East 448 516 41,000  Level Kansas City Center
10:11PM 37.1886 -99.7172 74° East 447 514 41,000  Level Kansas City Center
10:12PM 37.2214 -99.5753 74° East 445 512 41,000  Level Kansas City Center
10:13PM 37.2567 -99.4267 73° East 453 521 41,000  Level Kansas City Center
10:14PM 37.2917 -99.2739 74° East 454 522 41,000  Level Kansas City Center
10:15PM 37.3325 -99.1156 72° East 446 513 41,000  Level Kansas City Center
10:16PM 37.3647 -98.9628 75° East 451 519 41,000  Level Kansas City Center
10:17PM 37.3994 -98.8125 74° East 449 517 41,000  Level Kansas City Center
10:19PM 37.4339 -98.6628 74° East 448 516 41,000  Level Kansas City Center
10:20PM 37.4678 -98.5139 74° East 445 512 41,000  Level Kansas City Center
10:21PM 37.5083 -98.3331 74° East 448 516 41,000  Level Kansas City Center
10:22PM 37.5425 -98.1839 74° East 446 513 41,000  Level Kansas City Center
10:23PM 37.5761 -98.0342 74° East 447 514 41,000  Level Kansas City Center
10:24PM 37.6089 -97.8844 75° East 448 516 41,000  Level Kansas City Center
10:25PM 37.6406 -97.7350 75° East 445 512 41,000  Level Kansas City Center
10:26PM 37.6739 -97.5831 74° East 446 513 41,000  Level Kansas City Center
10:27PM 37.7064 -97.4389 74° East 444 511 41,000  Level Kansas City Center
10:28PM 37.7458 -97.2606 74° East 442 509 41,000  Level Kansas City Center
10:29PM 37.7775 -97.1111 75° East 442 509 41,000  Level Kansas City Center
10:30PM 37.8089 -96.9622 75° East 440 506 41,000  Level Kansas City Center
10:31PM 37.8408 -96.8119 75° East 443 510 41,000  Level Kansas City Center
10:32PM 37.8719 -96.6622 75° East 442 509 41,000  Level Kansas City Center
10:33PM 37.9044 -96.5100 75° East 446 513 41,000  Level Kansas City Center
10:34PM 37.9350 -96.3575 76° East 447 514 41,000  Level Kansas City Center
10:35PM 37.9672 -96.2042 75° East 451 519 41,000  Level Kansas City Center
10:36PM 38.0008 -96.0367 76° East 447 514 41,000  Level Kansas City Center
10:37PM 38.0311 -95.8894 75° East 452 520 41,000  Level Kansas City Center
10:38PM 38.0647 -95.7178 76° East 450 518 41,000  Level Kansas City Center
10:39PM 38.0944 -95.5717 75° East 448 516 41,000  Level Kansas City Center
10:40PM 38.1272 -95.4014 76° East 446 513 41,000  Level Kansas City Center
10:41PM 38.1561 -95.2558 76° East 445 512 41,000  Level Kansas City Center
10:42PM 38.1842 -95.1125 76° East 442 509 41,000  Level Kansas City Center
10:43PM 38.2169 -94.9431 76° East 443 510 41,000  Level Kansas City Center
10:44PM 38.2450 -94.7958 76° East 446 513 41,000  Level Kansas City Center
10:45PM 38.2783 -94.6236 76° East 448 516 41,000  Level Kansas City Center
10:46PM 38.3053 -94.4750 77° East 450 518 41,000  Level Kansas City Center
10:47PM 38.3333 -94.3272 76° East 450 518 41,000  Level Kansas City Center
10:48PM 38.3667 -94.1539 76° East 451 519 41,000  Level Kansas City Center
10:49PM 38.3942 -93.9936 78° East 448 516 41,000  Level Kansas City Center
10:50PM 38.4236 -93.8356 77° East 452 520 41,000  Level Kansas City Center
10:51PM 38.4533 -93.6761 77° East 458 527 41,000  Level Kansas City Center
10:52PM 38.4814 -93.5183 77° East 457 526 41,000  Level Kansas City Center
10:53PM 38.5097 -93.3600 77° East 456 525 41,000  Level Kansas City Center
10:54PM 38.5378 -93.2031 77° East 454 522 41,000  Level Kansas City Center
10:55PM 38.5658 -93.0450 77° East 454 522 41,000  Level Kansas City Center
10:56PM 38.5933 -92.8878 77° East 451 519 41,000  Level Kansas City Center
10:57PM 38.6200 -92.7297 78° East 452 520 41,000  Level Kansas City Center
10:58PM 38.6472 -92.5708 78° East 453 521 41,000  Level Kansas City Center
10:59PM 38.6739 -92.4111 78° East 455 524 41,000  Level Kansas City Center
11:00PM 38.7014 -92.2486 78° East 460 529 41,000  Level Kansas City Center
11:01PM 38.7275 -92.0875 78° East 460 529 41,000  Level Kansas City Center
11:02PM 38.7542 -91.9253 78° East 461 531 41,000  Level Kansas City Center
11:03PM 38.7794 -91.7622 79° East 464 534 41,000  Level Kansas City Center
11:04PM 38.8075 -91.5931 78° East 465 535 41,000  Level Kansas City Center
11:05PM 38.8339 -91.4311 78° East 465 535 41,000  Level Kansas City Center
11:06PM 38.8592 -91.2694 79° East 464 534 41,000  Level Kansas City Center
11:07PM 38.8847 -91.1069 79° East 464 534 41,000  Level Kansas City Center
11:08PM 38.9094 -90.9453 79° East 462 532 41,000  Level Kansas City Center
11:09PM 38.9389 -90.7522 79° East 457 526 41,000  Level Kansas City Center
11:11PM 38.9647 -90.5894 78° East 460 529 41,000  Level Kansas City Center
11:12PM 38.9900 -90.4250 79° East 463 533 41,000  Level Kansas City Center
11:13PM 39.0144 -90.2608 79° East 463 533 41,000  Level Kansas City Center
11:14PM 39.0389 -90.0956 79° East 465 535 41,000  Level Kansas City Center
11:15PM 39.0617 -89.9325 80° East 464 534 41,000  Level Kansas City Center
11:16PM 39.0853 -89.7689 79° East 463 533 41,000  Level Kansas City Center
11:17PM 39.1106 -89.5908 80° East 467 537 41,000  Level Kansas City Center
11:18PM 39.1344 -89.4258 79° East 469 540 41,000  Level Kansas City Center
11:19PM 39.1569 -89.2606 80° East 468 539 41,000  Level Kansas City Center
11:20PM 39.1792 -89.1058 79° East 474 545 41,000  Level Kansas City Center
11:21PM 39.2025 -88.9397 80° East 473 544 41,000  Level Kansas City Center
11:22PM 39.2264 -88.7750 79° East 471 542 41,000  Level Kansas City Center
11:23PM 39.2525 -88.5828 80° East 473 544 41,000  Level Kansas City Center
11:24PM 39.2744 -88.4156 80° East 471 542 41,000  Level Kansas City Center
11:25PM 39.2972 -88.2478 80° East 472 543 41,000  Level Kansas City Center
11:26PM 39.3183 -88.0808 81° East 470 541 41,000  Level Kansas City Center
11:27PM 39.3378 -87.9139 81° East 469 540 41,000  Level Kansas City Center
11:27PM 39.3461 -87.8486 81° East 472 543 41,000  Level Indianapolis Center
11:28PM 39.3667 -87.6819 81° East 468 539 41,000  Level Indianapolis Center
11:29PM 39.3883 -87.5008 81° East 469 540 41,000  Level Indianapolis Center
11:30PM 39.4094 -87.3339 81° East 468 539 41,000  Level Indianapolis Center
11:31PM 39.4294 -87.1661 81° East 469 540 41,000  Level Indianapolis Center
11:32PM 39.4508 -87.0000 80° East 466 536 41,000  Level Indianapolis Center
11:33PM 39.4692 -86.8342 82° East 467 537 41,000  Level Indianapolis Center
11:34PM 39.4892 -86.6683 81° East 466 536 41,000  Level Indianapolis Center
11:35PM 39.5081 -86.5031 82° East 465 535 41,000  Level Indianapolis Center
11:36PM 39.5261 -86.3389 82° East 464 534 41,000  Level Indianapolis Center
11:37PM 39.5450 -86.1747 81° East 465 535 41,000  Level Indianapolis Center
11:38PM 39.5625 -86.0111 82° East 462 532 41,000  Level Indianapolis Center
11:39PM 39.5842 -85.8203 82° East 459 528 41,000  Level Indianapolis Center
11:40PM 39.6025 -85.6567 82° East 458 527 41,000  Level Indianapolis Center
11:41PM 39.6186 -85.4925 83° East 459 528 41,000  Level Indianapolis Center
11:42PM 39.6375 -85.3275 81° East 459 528 41,000  Level Indianapolis Center
11:43PM 39.6542 -85.1622 82° East 460 529 41,000  Level Indianapolis Center
11:44PM 39.6622 -84.9950 86° East 462 532 41,000  Level Indianapolis Center
11:45PM 39.6647 -84.8442 89° East 463 533 41,000  Level Indianapolis Center
11:47PM 39.6686 -84.6761 88° East 463 533 41,000  Level Indianapolis Center
11:48PM 39.6711 -84.5075 89° East 465 535 41,000  Level Indianapolis Center
11:49PM 39.6761 -84.3094 88° East 467 537 41,000  Level Indianapolis Center
11:50PM 39.6794 -84.1403 88° East 467 537 41,000  Level Indianapolis Center
11:51PM 39.6817 -83.9717 89° East 465 535 41,000  Level Indianapolis Center
11:52PM 39.6844 -83.8044 89° East 463 533 41,000  Level Indianapolis Center
11:53PM 39.6867 -83.6375 89° East 463 533 41,000  Level Indianapolis Center
11:54PM 39.6889 -83.4722 89° East 464 534 41,000  Level Indianapolis Center
11:55PM 39.6906 -83.3075 89° East 461 531 41,000  Level Indianapolis Center
11:56PM 39.6925 -83.1422 89° East 459 528 41,000  Level Indianapolis Center
11:57PM 39.6944 -82.9756 89° East 461 531 41,000  Level Indianapolis Center
11:58PM 39.6956 -82.8106 89° East 456 525 41,000  Level Indianapolis Center
11:59PM 39.6964 -82.6439 90° East 458 527 41,000  Level Indianapolis Center
12:00AM 39.6981 -82.4786 89° East 455 524 41,000  Level Indianapolis Center
12:01AM 39.6981 -82.3100 90° East 463 533 41,000  Level Indianapolis Center
12:02AM 39.6975 -82.1439 90° East 459 528 41,000  Level Indianapolis Center
12:03AM 39.6975 -81.9606 90° East 463 533 41,000  Level Indianapolis Center
12:04AM 39.6981 -81.7922 90° East 464 534 41,000  Level Indianapolis Center
12:05AM 39.6925 -81.6225 92° East 469 540 41,000  Level Indianapolis Center
12:06AM 39.6803 -81.4531 95° East 469 540 41,000  Level Indianapolis Center
12:07AM 39.6692 -81.2836 95° East 469 540 41,000  Level Indianapolis Center
12:08AM 39.6575 -81.1136 95° East 472 543 41,000  Level Indianapolis Center
12:09AM 39.6461 -80.9428 95° East 473 544 41,000  Level Indianapolis Center
12:10AM 39.6339 -80.7731 95° East 472 543 41,000  Level Indianapolis Center
12:11AM 39.6208 -80.6044 96° East 469 540 41,000  Level Indianapolis Center
12:11AM 39.6172 -80.5189 93° East 469 540 41,000  Level Washington Center
12:12AM 39.6050 -80.3536 95° East 464 534 41,000  Level Washington Center
12:13AM 39.5928 -80.1886 95° East 464 534 41,000  Level Washington Center
12:14AM 39.5800 -80.0236 96° East 464 534 41,000  Level Washington Center
12:15AM 39.5672 -79.8611 96° East 464 534 41,000  Level Washington Center
12:16AM 39.5542 -79.6989 96° East 459 528 41,000  Level Washington Center
12:17AM 39.5408 -79.5339 96° East 459 528 41,000 -180 Level Washington Center
12:18AM 39.5253 -79.3664 97° East 465 535 40,700 -660 Descending Washington Center
12:19AM 39.5097 -79.1986 97° East 465 535 39,800 -1,500 Descending Washington Center
12:20AM 39.4958 -79.0286 96° East 470 541 37,800 -2,640 Descending Washington Center
12:21AM 39.4819 -78.8611 96° East 470 541 34,600 -3,480 Descending Washington Center
12:22AM 39.4656 -78.6911 97° East 470 541 30,900 -3,600 Descending Washington Center
12:23AM 39.4508 -78.5211 96° East 470 541 27,400 -3,300 Descending Washington Center
12:24AM 39.4342 -78.3539 97° East 470 541 24,400 -2,880 Descending Washington Center
12:25AM 39.4186 -78.2000 97° East 451 519 21,600 -2,820 Descending Washington Center
12:26AM 39.4053 -78.0492 96° East 438 504 18,800 -2,880 Descending Washington Center
12:27AM 39.3914 -77.9064 97° East 416 479 16,100 -2,220 Descending Washington Center
12:28AM 39.3836 -77.7664 94° East 403 464 14,500 -1,620 Descending Washington Center
12:29AM 39.3839 -77.6350 90° East 384 442 12,900 -1,380 Descending Washington Center
12:30AM 39.3836 -77.5167 90° East 351 404 11,700 -1,380 Descending Washington Center
12:31AM 39.3833 -77.4119 90° East 313 360 10,200 -1,440 Descending Washington Center
12:32AM 39.3833 -77.3333 90° East 296 341 9,100 -1,440 Descending Potomac TRACON
12:33AM 39.3833 -77.2333 90° East 282 325 7,600 -1,500 Descending Potomac TRACON
12:34AM 39.3667 -77.1333 102° East 281 323 6,200 -1,320 Descending Potomac TRACON
12:35AM 39.3167 -77.0667 134° Southeast 282 325 5,000 -1,140 Descending Potomac TRACON
12:36AM 39.2667 -77.0167 142° Southeast 257 296 4,000 -600 Descending Potomac TRACON
12:37AM 39.2167 -77.0000 166° South 249 287 3,800 -540 Descending Potomac TRACON
12:38AM 39.1833 -76.9500 131° Southeast 167 192 3,000 -660 Descending Potomac TRACON
12:39AM 39.1833 -76.9000 90° East 157 181 2,500 -300 Descending Potomac TRACON
12:40AM 39.1833 -76.8500 90° East 144 166 2,500 -360 Level Potomac TRACON
12:41AM 39.1833 -76.8000 90° East 140 161 1,900 -660 Descending Potomac TRACON
12:42AM 39.1833 -76.7667 90° East 125 144 1,200 -660 Descending Potomac TRACON
12:43AM 39.1833 -76.7167 90° East 115 132 600 -420 Descending Potomac TRACON
12:44AM 39.1667 -76.6833 123° Southeast 116 133 400 -240 Descending Potomac TRACON
12:46AM 39.1667 -76.6667 142° Southeast  Level FlightAware Approximate
12:53AM 39.1754 -76.6683 142° Southeast  Level Estimated
12:54AM 39.1754 -76.6683 142° Southeast  Level Estimated
12:55AM 39.1754 -76.6683 142° Southeast  Level Estimated